createdAt,value
2022-08-19T00:01:37.972Z,51.53
2022-08-19T00:04:10.487Z,52.03
2022-08-19T00:06:40.980Z,53.26
2022-08-19T00:09:11.675Z,53.93
2022-08-19T00:11:40.148Z,54.70
2022-08-19T00:14:10.824Z,55.00
2022-08-19T00:16:39.757Z,56.18
2022-08-19T00:19:10.107Z,57.28
2022-08-19T00:21:40.830Z,57.38
2022-08-19T00:24:09.874Z,57.50
2022-08-19T00:26:38.843Z,57.76
2022-08-19T00:29:08.949Z,58.72
2022-08-19T00:31:37.123Z,59.08
2022-08-19T00:34:05.558Z,58.66
2022-08-19T00:36:35.143Z,58.03
2022-08-19T00:39:03.295Z,58.11
2022-08-19T00:41:31.897Z,59.17
2022-08-19T00:44:05.380Z,58.30
2022-08-19T00:46:34.666Z,59.50
2022-08-19T00:49:06.345Z,60.02
2022-08-19T00:51:36.505Z,59.51
2022-08-19T00:54:05.034Z,59.39
2022-08-19T00:56:33.738Z,59.75
2022-08-19T00:59:02.746Z,60.52
2022-08-19T01:01:33.842Z,60.31
2022-08-19T01:04:02.077Z,60.06
2022-08-19T01:06:31.887Z,60.47
2022-08-19T01:09:02.005Z,60.32
2022-08-19T01:11:30.286Z,61.19
2022-08-19T01:13:58.658Z,61.74
2022-08-19T01:16:30.104Z,61.52
2022-08-19T01:18:58.583Z,62.00
2022-08-19T01:21:30.969Z,61.73
2022-08-19T01:24:00.531Z,61.34
2022-08-19T01:26:31.209Z,61.80
2022-08-19T01:29:02.097Z,61.50
2022-08-19T01:31:33.580Z,61.82
2022-08-19T01:34:03.079Z,61.37
2022-08-19T01:36:33.719Z,61.06
2022-08-19T01:39:06.318Z,60.67
2022-08-19T01:41:35.909Z,60.88
2022-08-19T01:44:17.869Z,61.12
2022-08-19T01:46:50.350Z,61.41
2022-08-19T01:49:20.121Z,61.12
2022-08-19T01:51:48.488Z,60.80
2022-08-19T01:54:27.216Z,61.56
2022-08-19T01:57:00.728Z,61.02
2022-08-19T01:59:28.967Z,61.76
2022-08-19T02:01:57.227Z,61.38
2022-08-19T02:04:26.543Z,61.73
2022-08-19T02:06:54.741Z,61.44
2022-08-19T02:09:24.676Z,61.84
2022-08-19T02:11:52.996Z,61.43
2022-08-19T02:14:21.182Z,61.17
2022-08-19T02:16:49.356Z,61.54
2022-08-19T02:19:17.511Z,60.88
2022-08-19T02:21:46.853Z,60.42
2022-08-19T02:24:15.032Z,59.73
2022-08-19T02:26:44.787Z,60.22
2022-08-19T02:29:12.955Z,59.03
2022-08-19T02:31:41.080Z,58.65
2022-08-19T02:34:09.573Z,58.83
2022-08-19T02:36:42.221Z,57.83
2022-08-19T02:39:10.033Z,56.81
2022-08-19T02:41:38.269Z,56.35
2022-08-19T02:46:56.488Z,55.75
2022-08-19T02:49:26.384Z,55.70
2022-08-19T02:51:55.394Z,55.60
2022-08-19T02:54:23.516Z,55.36
2022-08-19T02:56:51.609Z,55.36
2022-08-19T02:59:22.907Z,57.08
2022-08-19T03:01:51.426Z,57.87
2022-08-19T03:04:20.307Z,59.22
2022-08-19T03:06:49.250Z,58.65
2022-08-19T03:09:17.949Z,59.25
2022-08-19T03:11:46.518Z,59.33
2022-08-19T03:14:16.977Z,59.44
2022-08-19T03:16:48.866Z,60.49
2022-08-19T03:19:19.595Z,60.95
2022-08-19T03:21:48.064Z,61.96
2022-08-19T03:24:17.089Z,62.01
2022-08-19T03:26:48.264Z,62.49
2022-08-19T03:29:22.220Z,62.55
2022-08-19T03:32:01.609Z,63.54
2022-08-19T03:34:32.347Z,62.96
2022-08-19T03:37:02.322Z,63.55
2022-08-19T03:39:31.234Z,63.90
2022-08-19T03:42:29.267Z,63.21
2022-08-19T03:44:49.169Z,63.16
2022-08-19T03:47:18.830Z,63.75
2022-08-19T03:49:47.367Z,63.83
2022-08-19T03:52:15.407Z,64.19
2022-08-19T03:54:43.721Z,63.18
2022-08-19T03:57:12.202Z,63.55
2022-08-19T03:59:40.954Z,64.43
2022-08-19T04:02:11.655Z,63.91
2022-08-19T04:04:44.278Z,63.96
2022-08-19T04:07:16.841Z,63.66
2022-08-19T04:09:45.121Z,63.92
2022-08-19T04:12:13.348Z,64.87
2022-08-19T04:14:42.308Z,64.42
2022-08-19T04:17:10.496Z,64.49
2022-08-19T04:19:39.661Z,64.28
2022-08-19T04:22:09.161Z,64.29
2022-08-19T04:24:37.632Z,65.04
2022-08-19T04:27:06.545Z,64.70
2022-08-19T04:29:35.169Z,64.18
2022-08-19T04:32:09.120Z,64.14
2022-08-19T04:35:01.478Z,64.04
2022-08-19T04:37:35.538Z,64.24
2022-08-19T04:40:24.355Z,63.63
2022-08-19T04:42:52.727Z,64.24
2022-08-19T04:45:23.023Z,64.06
2022-08-19T04:47:58.905Z,64.99
2022-08-19T04:50:42.749Z,65.05
2022-08-19T04:53:13.348Z,64.55
2022-08-19T04:55:44.344Z,64.10
2022-08-19T04:58:12.495Z,64.10
2022-08-19T05:00:41.944Z,63.11
2022-08-19T05:03:10.487Z,62.99
2022-08-19T05:05:45.101Z,62.58
2022-08-19T05:08:30.793Z,62.97
2022-08-19T05:11:10.092Z,62.47
2022-08-19T05:13:43.320Z,62.07
2022-08-19T05:16:12.627Z,62.70
2022-08-19T05:18:58.721Z,61.92
2022-08-19T05:21:44.618Z,62.32
2022-08-19T05:24:15.514Z,61.80
2022-08-19T05:29:12.524Z,62.98
2022-08-19T05:31:41.711Z,63.75
2022-08-19T05:34:18.208Z,65.01
2022-08-19T05:36:48.729Z,64.94
2022-08-19T05:39:20.977Z,64.28
2022-08-19T05:41:50.952Z,64.38
2022-08-19T05:44:20.723Z,64.68
2022-08-19T05:46:48.996Z,64.60
2022-08-19T05:49:18.142Z,65.48
2022-08-19T05:51:46.223Z,65.76
2022-08-19T05:54:15.971Z,65.43
2022-08-19T05:56:48.654Z,65.28
2022-08-19T05:59:18.065Z,65.88
2022-08-19T06:01:51.508Z,64.92
2022-08-19T06:04:23.289Z,65.67
2022-08-19T06:06:54.289Z,65.46
2022-08-19T06:09:23.788Z,66.32
2022-08-19T06:11:56.090Z,66.02
2022-08-19T06:14:30.463Z,66.53
2022-08-19T06:17:02.643Z,66.94
2022-08-19T06:19:34.722Z,68.22
2022-08-19T06:22:09.314Z,68.20
2022-08-19T06:24:37.496Z,68.73
2022-08-19T06:27:07.439Z,67.69
2022-08-19T06:29:36.375Z,67.58
2022-08-19T06:32:05.787Z,67.24
2022-08-19T06:34:35.314Z,67.68
2022-08-19T06:37:03.658Z,67.69
2022-08-19T06:39:40.506Z,66.67
2022-08-19T06:42:12.831Z,66.72
2022-08-19T06:44:43.674Z,66.23
2022-08-19T06:47:23.154Z,65.39
2022-08-19T06:50:03.239Z,64.78
2022-08-19T06:52:34.235Z,65.15
2022-08-19T06:55:06.219Z,65.56
2022-08-19T06:57:36.386Z,65.74
2022-08-19T07:00:07.141Z,65.67
2022-08-19T07:02:38.618Z,66.20
2022-08-19T07:05:07.947Z,65.53
2022-08-19T07:07:36.896Z,65.13
2022-08-19T07:10:07.845Z,64.29
2022-08-19T07:12:38.327Z,63.82
2022-08-19T07:15:09.685Z,64.35
2022-08-19T07:17:42.046Z,64.10
2022-08-19T07:20:11.113Z,63.79
2022-08-19T07:22:39.655Z,62.97
2022-08-19T07:25:08.988Z,62.22
2022-08-19T07:27:53.241Z,62.75
2022-08-19T07:30:26.295Z,62.76
2022-08-19T07:32:57.289Z,61.74
2022-08-19T07:35:26.759Z,61.34
2022-08-19T07:37:55.021Z,61.65
2022-08-19T07:40:23.626Z,60.64
2022-08-19T07:42:53.062Z,60.07
2022-08-19T07:45:21.530Z,59.78
2022-08-19T07:47:51.382Z,58.67
2022-08-19T07:50:21.006Z,57.29
2022-08-19T07:52:50.565Z,56.20
2022-08-19T07:55:40.212Z,54.58
2022-08-19T07:58:13.906Z,54.08
2022-08-19T08:00:42.720Z,54.05
2022-08-19T08:03:11.023Z,53.57
2022-08-19T08:05:56.568Z,53.27
2022-08-19T08:08:51.636Z,52.91
2022-08-19T08:11:24.128Z,52.62
2022-08-19T08:14:01.309Z,51.82
2022-08-19T08:16:35.413Z,52.06
2022-08-19T08:19:12.629Z,51.79
2022-08-19T08:21:49.320Z,52.51
2022-08-19T08:24:18.003Z,52.09
2022-08-19T08:26:52.256Z,52.19
2022-08-19T08:29:27.305Z,51.49
2022-08-19T08:32:03.678Z,50.13
2022-08-19T08:34:42.516Z,49.99
2022-08-19T08:37:10.921Z,49.80
2022-08-19T08:39:39.156Z,49.54
2022-08-19T08:42:16.823Z,49.83
2022-08-19T08:47:36.760Z,48.87
2022-08-19T08:50:09.506Z,48.43
2022-08-19T08:52:39.731Z,48.69
2022-08-19T08:55:14.797Z,48.55
2022-08-19T08:57:52.207Z,48.43
2022-08-19T09:00:25.077Z,48.16
2022-08-19T09:02:53.212Z,48.34
2022-08-19T09:05:26.073Z,48.29
2022-08-19T09:08:00.688Z,47.91
2022-08-19T09:10:34.642Z,47.11
2022-08-19T09:13:21.254Z,47.57
2022-08-19T09:15:55.496Z,47.31
2022-08-19T09:18:23.940Z,47.25
2022-08-19T09:20:52.013Z,46.63
2022-08-19T09:23:26.649Z,46.30
2022-08-19T09:25:55.607Z,46.99
2022-08-19T09:28:27.056Z,46.39
2022-08-19T09:30:57.013Z,46.90
2022-08-19T09:33:26.189Z,46.83
2022-08-19T09:36:08.394Z,45.93
2022-08-19T09:38:37.485Z,45.83
2022-08-19T09:41:15.383Z,45.47
2022-08-19T09:43:48.035Z,45.70
2022-08-19T09:46:19.277Z,45.83
2022-08-19T09:48:51.545Z,45.84
2022-08-19T09:51:22.465Z,45.39
2022-08-19T09:53:54.619Z,44.88
2022-08-19T09:56:23.691Z,45.41
2022-08-19T09:58:52.978Z,45.16
2022-08-19T10:01:25.484Z,44.77
2022-08-19T10:03:56.353Z,44.07
2022-08-19T10:06:44.046Z,43.96
2022-08-19T10:09:15.973Z,44.29
2022-08-19T10:11:54.829Z,43.60
2022-08-19T10:14:24.678Z,44.41
2022-08-19T10:16:54.343Z,44.39
2022-08-19T10:19:25.726Z,44.12
2022-08-19T10:21:55.800Z,43.23
2022-08-19T10:24:29.657Z,42.94
2022-08-19T10:26:58.942Z,43.57
2022-08-19T10:29:31.883Z,43.57
2022-08-19T10:32:03.531Z,43.93
2022-08-19T10:34:33.133Z,44.28
2022-08-19T10:37:02.399Z,44.75
2022-08-19T10:39:32.884Z,45.12
2022-08-19T10:42:14.076Z,45.40
2022-08-19T10:44:42.869Z,45.85
2022-08-19T10:47:17.546Z,45.77
2022-08-19T10:50:12.288Z,45.76
2022-08-19T10:52:49.773Z,46.34
2022-08-19T10:55:37.927Z,46.16
2022-08-19T10:58:06.545Z,46.93
2022-08-19T11:00:36.809Z,47.44
2022-08-19T11:03:06.930Z,47.67
2022-08-19T11:05:40.751Z,47.50
2022-08-19T11:08:23.176Z,47.97
2022-08-19T11:11:00.287Z,48.89
2022-08-19T11:13:29.860Z,49.87
2022-08-19T11:16:07.373Z,51.06
2022-08-19T11:18:38.805Z,52.40
2022-08-19T11:21:11.227Z,52.92
2022-08-19T11:23:39.423Z,52.67
2022-08-19T11:26:07.633Z,52.38
2022-08-19T11:28:35.973Z,52.85
2022-08-19T11:31:04.412Z,52.84
2022-08-19T11:33:33.827Z,52.09
2022-08-19T11:36:06.013Z,51.02
2022-08-19T11:38:34.906Z,48.87
2022-08-19T11:41:06.074Z,46.80
2022-08-19T11:43:37.265Z,46.13
2022-08-19T11:46:07.850Z,46.21
2022-08-19T11:48:36.601Z,45.88
2022-08-19T11:51:09.677Z,45.54
2022-08-19T11:53:38.785Z,44.07
2022-08-19T11:56:09.460Z,42.03
2022-08-19T11:58:38.117Z,41.27
2022-08-19T12:01:09.782Z,40.97
2022-08-19T12:03:38.066Z,40.34
2022-08-19T12:06:09.888Z,39.65
2022-08-19T12:08:38.333Z,40.78
2022-08-19T12:11:08.864Z,41.51
2022-08-19T12:13:37.948Z,42.18
2022-08-19T12:16:13.471Z,42.94
2022-08-19T12:18:44.596Z,43.42
2022-08-19T12:21:14.854Z,43.98
2022-08-19T12:23:43.315Z,43.49
2022-08-19T12:26:13.288Z,41.97
2022-08-19T12:28:42.448Z,41.58
2022-08-19T12:31:13.045Z,40.51
2022-08-19T12:33:43.917Z,40.78
2022-08-19T12:36:16.239Z,41.38
2022-08-19T12:38:45.127Z,42.51
2022-08-19T12:41:22.952Z,43.54
2022-08-19T12:43:52.198Z,44.46
2022-08-19T12:46:22.287Z,44.77
2022-08-19T12:48:56.191Z,45.33
2022-08-19T12:51:26.385Z,45.56
2022-08-19T12:53:54.493Z,46.89
2022-08-19T12:56:23.525Z,48.32
2022-08-19T12:58:52.811Z,48.24
2022-08-19T13:01:23.014Z,47.46
2022-08-19T13:03:53.565Z,46.33
2022-08-19T13:06:22.453Z,45.76
2022-08-19T13:08:55.442Z,45.17
2022-08-19T13:11:26.448Z,45.56
2022-08-19T13:13:56.296Z,45.72
2022-08-19T13:16:24.602Z,44.80
2022-08-19T13:18:55.348Z,44.60
2022-08-19T13:21:25.894Z,44.09
2022-08-19T13:23:55.844Z,44.14
2022-08-19T13:26:24.342Z,44.42
2022-08-19T13:29:09.709Z,44.93
2022-08-19T13:31:56.326Z,45.71
2022-08-19T13:34:31.594Z,45.54
2022-08-19T13:37:00.004Z,45.81
2022-08-19T13:39:29.524Z,46.16
2022-08-19T13:41:57.822Z,47.40
2022-08-19T13:44:25.988Z,48.07
2022-08-19T13:46:54.552Z,49.14
2022-08-19T13:49:26.398Z,49.81
2022-08-19T13:51:54.493Z,49.52
2022-08-19T13:54:22.807Z,49.25
2022-08-19T13:56:52.309Z,48.74
2022-08-19T13:59:20.637Z,49.54
2022-08-19T14:01:48.827Z,49.75
2022-08-19T14:04:16.941Z,49.96
2022-08-19T14:06:45.061Z,49.79
2022-08-19T14:09:13.229Z,49.74
2022-08-19T14:11:41.396Z,49.37
2022-08-19T14:14:16.228Z,49.10
2022-08-19T14:16:44.916Z,49.26
2022-08-19T14:19:13.049Z,48.38
2022-08-19T14:21:42.035Z,48.31
2022-08-19T14:24:10.526Z,46.65
2022-08-19T14:26:39.517Z,45.66
2022-08-19T14:29:07.693Z,45.79
2022-08-19T14:31:37.405Z,45.53
2022-08-19T14:34:07.865Z,45.67
2022-08-19T14:36:39.057Z,45.79
2022-08-19T14:39:08.213Z,45.42
2022-08-19T14:41:36.516Z,45.17
2022-08-19T14:44:05.030Z,46.27
2022-08-19T14:46:33.549Z,46.69
2022-08-19T14:49:09.580Z,46.53
2022-08-19T14:51:37.927Z,46.62
2022-08-19T14:54:06.375Z,46.44
2022-08-19T14:56:34.530Z,46.95
2022-08-19T14:59:02.890Z,46.21
2022-08-19T15:01:31.113Z,45.96
2022-08-19T15:03:59.280Z,44.79
2022-08-19T15:06:29.330Z,43.56
2022-08-19T15:09:01.940Z,43.36
2022-08-19T15:11:33.497Z,41.76
2022-08-19T15:14:02.489Z,42.22
2022-08-19T15:16:30.743Z,41.45
2022-08-19T15:19:02.102Z,40.45
2022-08-19T15:21:32.270Z,40.15
2022-08-19T15:24:01.811Z,40.33
2022-08-19T15:26:33.019Z,39.10
2022-08-19T15:29:03.126Z,39.63
2022-08-19T15:31:38.207Z,39.75
2022-08-19T15:34:06.958Z,39.78
2022-08-19T15:36:41.127Z,39.68
2022-08-19T15:39:10.325Z,39.84
2022-08-19T15:41:39.617Z,39.68
2022-08-19T15:44:11.470Z,39.04
2022-08-19T15:46:43.802Z,39.84
2022-08-19T15:49:13.668Z,40.08
2022-08-19T15:51:44.635Z,41.14
2022-08-19T15:54:16.757Z,41.21
2022-08-19T15:57:02.220Z,41.59
2022-08-19T15:59:48.229Z,41.46
2022-08-19T16:02:37.231Z,41.21
2022-08-19T16:05:26.882Z,39.97
2022-08-19T16:07:56.639Z,39.08
2022-08-19T16:10:28.160Z,38.40
2022-08-19T16:12:57.796Z,38.54
2022-08-19T16:15:27.562Z,38.04
2022-08-19T16:17:57.345Z,38.03
2022-08-19T16:20:29.485Z,38.20
2022-08-19T16:23:04.124Z,38.06
2022-08-19T16:25:32.671Z,37.87
2022-08-19T16:28:07.231Z,37.15
2022-08-19T16:30:39.069Z,36.76
2022-08-19T16:33:09.075Z,37.36
2022-08-19T16:35:42.563Z,37.34
2022-08-19T16:38:16.581Z,37.58
2022-08-19T16:40:46.800Z,37.84
2022-08-19T16:43:15.084Z,38.15
2022-08-19T16:45:44.131Z,38.26
2022-08-19T16:48:12.561Z,38.56
2022-08-19T16:50:49.345Z,39.54
2022-08-19T16:53:23.270Z,39.60
2022-08-19T16:55:57.240Z,40.49
2022-08-19T16:58:28.261Z,40.97
2022-08-19T17:01:01.900Z,41.34
2022-08-19T17:03:36.154Z,41.92
2022-08-19T17:06:18.513Z,42.22
2022-08-19T17:08:51.682Z,42.98
2022-08-19T17:11:21.266Z,43.42
2022-08-19T17:13:50.953Z,43.03
2022-08-19T17:16:20.164Z,44.32
2022-08-19T17:18:52.907Z,44.17
2022-08-19T17:21:21.689Z,44.31
2022-08-19T17:23:51.272Z,44.92
2022-08-19T17:26:19.755Z,44.90
2022-08-19T17:28:49.790Z,44.34
2022-08-19T17:31:19.185Z,44.17
2022-08-19T17:33:48.991Z,43.87
2022-08-19T17:36:17.676Z,43.82
2022-08-19T17:38:46.013Z,43.66
2022-08-19T17:41:15.623Z,44.06
2022-08-19T17:43:44.351Z,43.85
2022-08-19T17:46:18.320Z,44.18
2022-08-19T17:48:51.817Z,44.27
2022-08-19T17:51:24.701Z,44.54
2022-08-19T17:53:55.859Z,45.21
2022-08-19T17:56:25.559Z,45.86
2022-08-19T17:59:00.008Z,46.44
2022-08-19T18:01:34.708Z,46.73
2022-08-19T18:04:18.918Z,47.39
2022-08-19T18:06:53.036Z,47.38
2022-08-19T18:09:25.154Z,47.99
2022-08-19T18:11:57.140Z,47.82
2022-08-19T18:14:33.671Z,48.52
2022-08-19T18:17:09.682Z,48.72
2022-08-19T18:19:41.055Z,48.72
2022-08-19T18:22:12.732Z,49.29
2022-08-19T18:24:41.783Z,49.25
2022-08-19T18:27:11.506Z,49.37
2022-08-19T18:29:40.351Z,49.89
2022-08-19T18:32:12.729Z,49.90
2022-08-19T18:34:42.009Z,50.12
2022-08-19T18:37:11.092Z,50.29
2022-08-19T18:39:58.683Z,50.73
2022-08-19T18:42:45.605Z,51.47
2022-08-19T18:45:31.671Z,51.38
2022-08-19T18:48:27.046Z,50.84
2022-08-19T18:50:57.708Z,51.44
2022-08-19T18:53:26.431Z,51.39
2022-08-19T18:55:55.247Z,51.02
2022-08-19T18:58:28.322Z,51.20
2022-08-19T19:00:57.542Z,51.29
2022-08-19T19:03:26.850Z,51.11
2022-08-19T19:05:55.055Z,51.00
2022-08-19T19:08:27.029Z,50.31
2022-08-19T19:10:57.022Z,50.88
2022-08-19T19:13:28.791Z,50.90
2022-08-19T19:15:57.438Z,51.19
2022-08-19T19:18:30.628Z,51.43
2022-08-19T19:21:02.598Z,51.54
2022-08-19T19:23:31.359Z,52.13
2022-08-19T19:25:59.625Z,52.41
2022-08-19T19:28:29.587Z,52.10
2022-08-19T19:30:58.916Z,52.00
2022-08-19T19:33:27.554Z,51.69
2022-08-19T19:35:56.565Z,51.77
2022-08-19T19:38:26.393Z,51.80
2022-08-19T19:40:54.641Z,52.32
2022-08-19T19:43:23.393Z,51.96
2022-08-19T19:45:53.402Z,51.95
2022-08-19T19:48:21.695Z,52.63
2022-08-19T19:50:54.286Z,52.79
2022-08-19T19:53:26.268Z,52.96
2022-08-19T19:55:58.894Z,53.23
2022-08-19T19:58:30.237Z,54.09
2022-08-19T20:01:01.356Z,54.47
2022-08-19T20:03:36.272Z,56.71
2022-08-19T20:06:04.495Z,58.86
2022-08-19T20:08:50.215Z,59.09
2022-08-19T20:11:31.519Z,59.59
2022-08-19T20:14:01.643Z,60.12
2022-08-19T20:16:31.806Z,61.12
2022-08-19T20:19:01.351Z,62.02
2022-08-19T20:21:32.377Z,62.45
2022-08-19T20:24:09.503Z,63.76
2022-08-19T20:26:38.374Z,65.23
2022-08-19T20:29:11.194Z,65.76
2022-08-19T20:31:59.202Z,66.20
2022-08-19T20:34:28.815Z,66.77
2022-08-19T20:36:58.999Z,67.16
2022-08-19T20:39:27.160Z,67.00
2022-08-19T20:41:56.594Z,69.37
2022-08-19T20:44:25.528Z,70.44
2022-08-19T20:46:54.344Z,70.13
2022-08-19T20:49:27.717Z,69.88
2022-08-19T20:51:56.595Z,70.19
2022-08-19T20:54:25.513Z,69.81
2022-08-19T20:56:54.005Z,67.94
2022-08-19T20:59:22.850Z,68.20
2022-08-19T21:01:52.347Z,68.08
2022-08-19T21:04:21.310Z,68.63
2022-08-19T21:06:51.312Z,68.78
2022-08-19T21:09:20.147Z,69.66
2022-08-19T21:11:48.810Z,69.96
2022-08-19T21:14:17.339Z,68.61
2022-08-19T21:16:46.258Z,70.57
2022-08-19T21:19:14.638Z,72.22
2022-08-19T21:21:42.813Z,71.46
2022-08-19T21:24:12.357Z,72.03
2022-08-19T21:26:42.892Z,72.16
2022-08-19T21:29:11.079Z,70.09
2022-08-19T21:31:39.162Z,69.58
2022-08-19T21:34:07.392Z,66.80
2022-08-19T21:36:35.702Z,64.59
2022-08-19T21:39:04.071Z,64.58
2022-08-19T21:41:33.686Z,64.34
2022-08-19T21:44:01.783Z,65.86
2022-08-19T21:46:29.935Z,65.29
2022-08-19T21:48:58.098Z,66.73
2022-08-19T21:51:27.522Z,67.44
2022-08-19T21:53:55.802Z,68.17
2022-08-19T21:56:24.675Z,66.77
2022-08-19T21:58:55.605Z,67.16
2022-08-19T22:01:23.986Z,64.93
2022-08-19T22:03:53.755Z,64.94
2022-08-19T22:06:25.986Z,61.80
2022-08-19T22:08:57.080Z,61.55
2022-08-19T22:11:25.726Z,62.21
2022-08-19T22:13:56.680Z,62.33
2022-08-19T22:16:25.761Z,62.23
2022-08-19T22:18:54.164Z,61.79
2022-08-19T22:21:34.578Z,63.29
2022-08-19T22:24:09.515Z,63.79
2022-08-19T22:26:37.614Z,64.21
2022-08-19T22:29:07.589Z,64.89
2022-08-19T22:31:37.650Z,66.70
2022-08-19T22:34:06.303Z,67.14
2022-08-19T22:36:35.737Z,67.33
2022-08-19T22:39:04.832Z,67.86
2022-08-19T22:41:33.703Z,68.80
2022-08-19T22:44:01.865Z,70.26
2022-08-19T22:46:34.288Z,70.42
2022-08-19T22:49:02.872Z,69.80
2022-08-19T22:51:48.923Z,70.35
2022-08-19T22:54:17.399Z,71.19
2022-08-19T22:56:45.711Z,71.43
2022-08-19T22:59:14.000Z,71.19
2022-08-19T23:01:43.459Z,69.88
2022-08-19T23:04:11.742Z,69.90
2022-08-19T23:06:42.045Z,70.54
2022-08-19T23:09:10.722Z,69.72
2022-08-19T23:11:42.059Z,69.92
2022-08-19T23:14:11.446Z,70.32
2022-08-19T23:16:41.562Z,70.94
2022-08-19T23:19:12.037Z,69.99
2022-08-19T23:21:40.474Z,69.38
2022-08-19T23:24:09.231Z,68.80
2022-08-19T23:26:37.531Z,69.78
2022-08-19T23:29:24.255Z,68.23
2022-08-19T23:31:52.364Z,69.71
2022-08-19T23:34:21.822Z,69.16
2022-08-19T23:36:50.546Z,70.66
2022-08-19T23:39:19.431Z,70.47
2022-08-19T23:41:48.364Z,70.57
2022-08-19T23:44:16.478Z,70.66
2022-08-19T23:46:54.722Z,70.61
2022-08-19T23:49:26.506Z,71.20
2022-08-19T23:51:55.908Z,72.44
2022-08-19T23:54:34.285Z,72.25
2022-08-19T23:57:13.822Z,72.20
2022-08-19T23:59:45.327Z,72.73
